sensor_id;sensor_type;location;lat;lon;timestamp;temperature;humidity
12386;DHT22;6257;57.634;18.310;2023-03-23T00:00:59;6.60;99.90
12386;DHT22;6257;57.634;18.310;2023-03-23T00:03:26;6.60;99.90
12386;DHT22;6257;57.634;18.310;2023-03-23T00:05:54;6.50;99.90
12386;DHT22;6257;57.634;18.310;2023-03-23T00:08:28;6.50;99.90
12386;DHT22;6257;57.634;18.310;2023-03-23T00:10:55;6.50;99.90
12386;DHT22;6257;57.634;18.310;2023-03-23T00:13:23;6.50;99.90
12386;DHT22;6257;57.634;18.310;2023-03-23T00:15:52;6.50;99.90
12386;DHT22;6257;57.634;18.310;2023-03-23T00:18:19;6.50;99.90
12386;DHT22;6257;57.634;18.310;2023-03-23T00:20:51;6.50;99.90
12386;DHT22;6257;57.634;18.310;2023-03-23T00:23:19;6.60;99.90
12386;DHT22;6257;57.634;18.310;2023-03-23T00:25:50;6.60;99.90
12386;DHT22;6257;57.634;18.310;2023-03-23T00:28:19;6.60;99.90
12386;DHT22;6257;57.634;18.310;2023-03-23T00:30:56;6.70;99.90
12386;DHT22;6257;57.634;18.310;2023-03-23T00:33:24;6.60;99.90
12386;DHT22;6257;57.634;18.310;2023-03-23T00:35:52;6.60;99.90
12386;DHT22;6257;57.634;18.310;2023-03-23T00:38:20;6.60;99.90
12386;DHT22;6257;57.634;18.310;2023-03-23T00:40:47;6.70;99.90
12386;DHT22;6257;57.634;18.310;2023-03-23T00:43:15;6.70;99.90
12386;DHT22;6257;57.634;18.310;2023-03-23T00:45:43;6.70;99.90
12386;DHT22;6257;57.634;18.310;2023-03-23T00:48:16;6.70;99.90
12386;DHT22;6257;57.634;18.310;2023-03-23T00:50:44;6.60;99.90
12386;DHT22;6257;57.634;18.310;2023-03-23T00:53:11;6.70;99.90
12386;DHT22;6257;57.634;18.310;2023-03-23T00:55:40;6.70;99.90
12386;DHT22;6257;57.634;18.310;2023-03-23T00:58:07;6.70;99.90
12386;DHT22;6257;57.634;18.310;2023-03-23T01:00:34;6.80;99.90
12386;DHT22;6257;57.634;18.310;2023-03-23T01:03:02;6.70;99.90
12386;DHT22;6257;57.634;18.310;2023-03-23T01:05:34;6.70;99.90
12386;DHT22;6257;57.634;18.310;2023-03-23T01:08:01;6.70;99.90
12386;DHT22;6257;57.634;18.310;2023-03-23T01:10:29;6.70;99.90
12386;DHT22;6257;57.634;18.310;2023-03-23T01:12:58;6.70;99.90
12386;DHT22;6257;57.634;18.310;2023-03-23T01:15:25;6.70;99.90
12386;DHT22;6257;57.634;18.310;2023-03-23T01:17:53;6.70;99.90
12386;DHT22;6257;57.634;18.310;2023-03-23T01:20:20;6.70;99.90
12386;DHT22;6257;57.634;18.310;2023-03-23T01:22:48;6.70;99.90
12386;DHT22;6257;57.634;18.310;2023-03-23T01:25:16;6.70;99.90
12386;DHT22;6257;57.634;18.310;2023-03-23T01:27:43;6.70;99.90
12386;DHT22;6257;57.634;18.310;2023-03-23T01:30:11;6.70;99.90
12386;DHT22;6257;57.634;18.310;2023-03-23T01:32:39;6.70;99.90
12386;DHT22;6257;57.634;18.310;2023-03-23T01:35:07;6.70;99.90
12386;DHT22;6257;57.634;18.310;2023-03-23T01:37:35;6.80;99.90
12386;DHT22;6257;57.634;18.310;2023-03-23T01:40:04;6.80;99.90
12386;DHT22;6257;57.634;18.310;2023-03-23T01:42:34;6.80;99.90
12386;DHT22;6257;57.634;18.310;2023-03-23T01:45:27;6.80;99.90
12386;DHT22;6257;57.634;18.310;2023-03-23T01:48:00;6.70;99.90
12386;DHT22;6257;57.634;18.310;2023-03-23T01:50:31;6.70;99.90
12386;DHT22;6257;57.634;18.310;2023-03-23T01:53:02;6.70;99.90
12386;DHT22;6257;57.634;18.310;2023-03-23T01:55:31;6.80;99.90
12386;DHT22;6257;57.634;18.310;2023-03-23T01:57:58;6.80;99.90
12386;DHT22;6257;57.634;18.310;2023-03-23T02:00:26;6.80;99.90
12386;DHT22;6257;57.634;18.310;2023-03-23T02:02:54;6.80;99.90
12386;DHT22;6257;57.634;18.310;2023-03-23T02:05:26;6.80;99.90
12386;DHT22;6257;57.634;18.310;2023-03-23T02:07:57;6.80;99.90
12386;DHT22;6257;57.634;18.310;2023-03-23T02:10:31;6.80;99.90
12386;DHT22;6257;57.634;18.310;2023-03-23T02:12:58;6.80;99.90
12386;DHT22;6257;57.634;18.310;2023-03-23T02:15:30;6.70;99.90
12386;DHT22;6257;57.634;18.310;2023-03-23T02:18:04;6.70;99.90
12386;DHT22;6257;57.634;18.310;2023-03-23T02:20:46;6.70;99.90
12386;DHT22;6257;57.634;18.310;2023-03-23T02:26:33;6.70;99.90
12386;DHT22;6257;57.634;18.310;2023-03-23T02:29:36;6.70;99.90
12386;DHT22;6257;57.634;18.310;2023-03-23T02:32:26;6.70;99.90
12386;DHT22;6257;57.634;18.310;2023-03-23T02:35:07;6.70;99.90
12386;DHT22;6257;57.634;18.310;2023-03-23T02:37:39;6.70;99.90
12386;DHT22;6257;57.634;18.310;2023-03-23T02:40:15;6.70;99.90
12386;DHT22;6257;57.634;18.310;2023-03-23T02:42:48;6.70;99.90
12386;DHT22;6257;57.634;18.310;2023-03-23T02:45:17;6.60;99.90
12386;DHT22;6257;57.634;18.310;2023-03-23T02:47:50;6.60;99.90
12386;DHT22;6257;57.634;18.310;2023-03-23T02:50:23;6.60;99.90
12386;DHT22;6257;57.634;18.310;2023-03-23T02:52:51;6.60;99.90
12386;DHT22;6257;57.634;18.310;2023-03-23T02:55:19;6.60;99.90
12386;DHT22;6257;57.634;18.310;2023-03-23T02:57:50;6.60;99.90
12386;DHT22;6257;57.634;18.310;2023-03-23T03:00:19;6.60;99.90
12386;DHT22;6257;57.634;18.310;2023-03-23T03:02:47;6.60;99.90
12386;DHT22;6257;57.634;18.310;2023-03-23T03:05:28;6.60;99.90
12386;DHT22;6257;57.634;18.310;2023-03-23T03:08:11;6.60;99.90
12386;DHT22;6257;57.634;18.310;2023-03-23T03:10:48;6.60;99.90
12386;DHT22;6257;57.634;18.310;2023-03-23T03:13:24;6.60;99.90
12386;DHT22;6257;57.634;18.310;2023-03-23T03:15:56;6.70;99.90
12386;DHT22;6257;57.634;18.310;2023-03-23T03:18:27;6.70;99.90
12386;DHT22;6257;57.634;18.310;2023-03-23T03:21:01;6.70;99.90
12386;DHT22;6257;57.634;18.310;2023-03-23T03:23:30;6.70;99.90
12386;DHT22;6257;57.634;18.310;2023-03-23T03:26:00;6.60;99.90
12386;DHT22;6257;57.634;18.310;2023-03-23T03:28:32;6.60;99.90
12386;DHT22;6257;57.634;18.310;2023-03-23T03:31:02;6.60;99.90
12386;DHT22;6257;57.634;18.310;2023-03-23T03:33:32;6.60;99.90
12386;DHT22;6257;57.634;18.310;2023-03-23T03:36:02;6.60;99.90
12386;DHT22;6257;57.634;18.310;2023-03-23T03:38:41;6.60;99.90
12386;DHT22;6257;57.634;18.310;2023-03-23T03:41:08;6.60;99.90
12386;DHT22;6257;57.634;18.310;2023-03-23T03:43:35;6.50;99.90
12386;DHT22;6257;57.634;18.310;2023-03-23T03:46:03;6.50;99.90
12386;DHT22;6257;57.634;18.310;2023-03-23T03:48:30;6.50;99.90
12386;DHT22;6257;57.634;18.310;2023-03-23T03:50:57;6.50;99.90
12386;DHT22;6257;57.634;18.310;2023-03-23T03:53:27;6.50;99.90
12386;DHT22;6257;57.634;18.310;2023-03-23T03:55:54;6.50;99.90
12386;DHT22;6257;57.634;18.310;2023-03-23T03:58:25;6.40;99.90
12386;DHT22;6257;57.634;18.310;2023-03-23T04:00:57;6.40;99.90
12386;DHT22;6257;57.634;18.310;2023-03-23T04:03:25;6.40;99.90
12386;DHT22;6257;57.634;18.310;2023-03-23T04:05:53;6.40;99.90
12386;DHT22;6257;57.634;18.310;2023-03-23T04:08:21;6.40;99.90
12386;DHT22;6257;57.634;18.310;2023-03-23T04:10:50;6.40;99.90
12386;DHT22;6257;57.634;18.310;2023-03-23T04:13:18;6.40;99.90
12386;DHT22;6257;57.634;18.310;2023-03-23T04:15:45;6.40;99.90
12386;DHT22;6257;57.634;18.310;2023-03-23T04:18:13;6.30;99.90
12386;DHT22;6257;57.634;18.310;2023-03-23T04:20:43;6.40;99.90
12386;DHT22;6257;57.634;18.310;2023-03-23T04:23:10;6.40;99.90
12386;DHT22;6257;57.634;18.310;2023-03-23T04:25:37;6.40;99.90
12386;DHT22;6257;57.634;18.310;2023-03-23T04:28:08;6.40;99.90
12386;DHT22;6257;57.634;18.310;2023-03-23T04:30:35;6.40;99.90
12386;DHT22;6257;57.634;18.310;2023-03-23T04:33:03;6.40;99.90
12386;DHT22;6257;57.634;18.310;2023-03-23T04:35:30;6.40;99.90
12386;DHT22;6257;57.634;18.310;2023-03-23T04:37:57;6.30;99.90
12386;DHT22;6257;57.634;18.310;2023-03-23T04:40:24;6.30;99.90
12386;DHT22;6257;57.634;18.310;2023-03-23T04:42:51;6.30;99.90
12386;DHT22;6257;57.634;18.310;2023-03-23T04:45:24;6.30;99.90
12386;DHT22;6257;57.634;18.310;2023-03-23T04:47:52;6.30;99.90
12386;DHT22;6257;57.634;18.310;2023-03-23T04:50:24;6.30;99.90
12386;DHT22;6257;57.634;18.310;2023-03-23T04:52:53;6.30;99.90
12386;DHT22;6257;57.634;18.310;2023-03-23T04:55:22;6.30;99.90
12386;DHT22;6257;57.634;18.310;2023-03-23T04:57:50;6.30;99.90
12386;DHT22;6257;57.634;18.310;2023-03-23T05:00:17;6.30;99.90
12386;DHT22;6257;57.634;18.310;2023-03-23T05:02:48;6.20;99.90
12386;DHT22;6257;57.634;18.310;2023-03-23T05:05:17;6.20;99.90
12386;DHT22;6257;57.634;18.310;2023-03-23T05:07:45;6.10;99.90
12386;DHT22;6257;57.634;18.310;2023-03-23T05:10:13;6.10;99.90
12386;DHT22;6257;57.634;18.310;2023-03-23T05:12:41;6.10;99.90
12386;DHT22;6257;57.634;18.310;2023-03-23T05:15:09;6.10;99.90
12386;DHT22;6257;57.634;18.310;2023-03-23T05:17:37;6.10;99.90
12386;DHT22;6257;57.634;18.310;2023-03-23T05:20:07;6.10;99.90
12386;DHT22;6257;57.634;18.310;2023-03-23T05:22:37;6.00;99.90
12386;DHT22;6257;57.634;18.310;2023-03-23T05:25:05;6.00;99.90
12386;DHT22;6257;57.634;18.310;2023-03-23T05:27:34;6.00;99.90
12386;DHT22;6257;57.634;18.310;2023-03-23T05:30:02;6.10;99.90
12386;DHT22;6257;57.634;18.310;2023-03-23T05:32:30;6.10;99.90
12386;DHT22;6257;57.634;18.310;2023-03-23T05:34:58;6.10;99.90
12386;DHT22;6257;57.634;18.310;2023-03-23T05:37:27;6.10;99.90
12386;DHT22;6257;57.634;18.310;2023-03-23T05:39:58;6.10;99.90
12386;DHT22;6257;57.634;18.310;2023-03-23T05:42:31;6.10;99.90
12386;DHT22;6257;57.634;18.310;2023-03-23T05:45:00;6.10;99.90
12386;DHT22;6257;57.634;18.310;2023-03-23T05:47:27;6.20;99.90
12386;DHT22;6257;57.634;18.310;2023-03-23T05:49:55;6.20;99.90
12386;DHT22;6257;57.634;18.310;2023-03-23T05:52:23;6.30;99.90
12386;DHT22;6257;57.634;18.310;2023-03-23T05:54:52;6.30;99.90
12386;DHT22;6257;57.634;18.310;2023-03-23T05:57:19;6.30;99.90
12386;DHT22;6257;57.634;18.310;2023-03-23T05:59:47;6.40;99.90
12386;DHT22;6257;57.634;18.310;2023-03-23T06:02:15;6.50;99.90
12386;DHT22;6257;57.634;18.310;2023-03-23T06:04:42;6.50;99.90
12386;DHT22;6257;57.634;18.310;2023-03-23T06:07:10;6.50;99.90
12386;DHT22;6257;57.634;18.310;2023-03-23T06:09:40;6.50;99.90
12386;DHT22;6257;57.634;18.310;2023-03-23T06:12:09;6.60;99.90
12386;DHT22;6257;57.634;18.310;2023-03-23T06:14:37;6.60;99.90
12386;DHT22;6257;57.634;18.310;2023-03-23T06:17:04;6.70;99.90
12386;DHT22;6257;57.634;18.310;2023-03-23T06:19:31;6.70;99.90
12386;DHT22;6257;57.634;18.310;2023-03-23T06:21:59;6.80;99.90
12386;DHT22;6257;57.634;18.310;2023-03-23T06:24:27;6.80;99.90
12386;DHT22;6257;57.634;18.310;2023-03-23T06:26:54;6.80;99.90
12386;DHT22;6257;57.634;18.310;2023-03-23T06:29:23;6.80;99.90
12386;DHT22;6257;57.634;18.310;2023-03-23T06:31:53;6.80;99.90
12386;DHT22;6257;57.634;18.310;2023-03-23T06:34:21;6.80;99.90
12386;DHT22;6257;57.634;18.310;2023-03-23T06:36:48;6.80;99.90
12386;DHT22;6257;57.634;18.310;2023-03-23T06:39:15;6.90;99.90
12386;DHT22;6257;57.634;18.310;2023-03-23T06:41:43;6.90;99.90
12386;DHT22;6257;57.634;18.310;2023-03-23T06:44:09;7.00;99.90
12386;DHT22;6257;57.634;18.310;2023-03-23T06:46:40;7.00;99.90
12386;DHT22;6257;57.634;18.310;2023-03-23T06:49:08;7.10;99.90
12386;DHT22;6257;57.634;18.310;2023-03-23T06:51:35;7.10;99.90
12386;DHT22;6257;57.634;18.310;2023-03-23T06:54:03;7.10;99.90
12386;DHT22;6257;57.634;18.310;2023-03-23T06:56:30;7.10;99.90
12386;DHT22;6257;57.634;18.310;2023-03-23T06:58:57;7.20;99.90
12386;DHT22;6257;57.634;18.310;2023-03-23T07:01:25;7.30;99.90
12386;DHT22;6257;57.634;18.310;2023-03-23T07:03:54;7.20;99.90
12386;DHT22;6257;57.634;18.310;2023-03-23T07:06:22;7.30;99.90
12386;DHT22;6257;57.634;18.310;2023-03-23T07:08:50;7.30;99.90
12386;DHT22;6257;57.634;18.310;2023-03-23T07:11:18;7.30;99.90
12386;DHT22;6257;57.634;18.310;2023-03-23T07:13:45;7.30;99.90
12386;DHT22;6257;57.634;18.310;2023-03-23T07:16:12;7.40;99.90
12386;DHT22;6257;57.634;18.310;2023-03-23T07:18:39;7.40;99.90
12386;DHT22;6257;57.634;18.310;2023-03-23T07:21:08;7.30;99.90
12386;DHT22;6257;57.634;18.310;2023-03-23T07:23:35;7.30;99.90
12386;DHT22;6257;57.634;18.310;2023-03-23T07:26:03;7.30;99.90
12386;DHT22;6257;57.634;18.310;2023-03-23T07:28:30;7.30;99.90
12386;DHT22;6257;57.634;18.310;2023-03-23T07:30:57;7.30;99.90
12386;DHT22;6257;57.634;18.310;2023-03-23T07:33:24;7.40;99.90
12386;DHT22;6257;57.634;18.310;2023-03-23T07:35:52;7.40;99.90
12386;DHT22;6257;57.634;18.310;2023-03-23T07:38:21;7.50;99.90
12386;DHT22;6257;57.634;18.310;2023-03-23T07:40:48;7.50;99.90
12386;DHT22;6257;57.634;18.310;2023-03-23T07:43:15;7.60;99.90
12386;DHT22;6257;57.634;18.310;2023-03-23T07:45:42;7.60;99.90
12386;DHT22;6257;57.634;18.310;2023-03-23T07:48:09;7.60;99.90
12386;DHT22;6257;57.634;18.310;2023-03-23T07:50:36;7.60;99.90
12386;DHT22;6257;57.634;18.310;2023-03-23T07:53:04;7.80;99.90
12386;DHT22;6257;57.634;18.310;2023-03-23T07:55:33;7.80;99.90
12386;DHT22;6257;57.634;18.310;2023-03-23T07:58:00;7.90;99.90
12386;DHT22;6257;57.634;18.310;2023-03-23T08:00:27;7.90;99.90
12386;DHT22;6257;57.634;18.310;2023-03-23T08:02:56;7.90;99.90
12386;DHT22;6257;57.634;18.310;2023-03-23T08:05:25;7.80;99.90
12386;DHT22;6257;57.634;18.310;2023-03-23T08:07:54;7.90;99.90
12386;DHT22;6257;57.634;18.310;2023-03-23T08:10:22;8.00;99.90
12386;DHT22;6257;57.634;18.310;2023-03-23T08:12:53;8.00;99.90
12386;DHT22;6257;57.634;18.310;2023-03-23T08:15:21;8.00;99.90
12386;DHT22;6257;57.634;18.310;2023-03-23T08:17:49;8.10;99.90
12386;DHT22;6257;57.634;18.310;2023-03-23T08:20:17;8.10;99.90
12386;DHT22;6257;57.634;18.310;2023-03-23T08:22:48;8.20;99.90
12386;DHT22;6257;57.634;18.310;2023-03-23T08:25:16;8.20;99.90
12386;DHT22;6257;57.634;18.310;2023-03-23T08:27:44;8.20;99.90
12386;DHT22;6257;57.634;18.310;2023-03-23T08:30:14;8.10;99.90
12386;DHT22;6257;57.634;18.310;2023-03-23T08:32:42;8.10;99.90
12386;DHT22;6257;57.634;18.310;2023-03-23T08:35:10;8.10;99.90
12386;DHT22;6257;57.634;18.310;2023-03-23T08:37:38;8.10;99.90
12386;DHT22;6257;57.634;18.310;2023-03-23T08:40:08;8.20;99.90
12386;DHT22;6257;57.634;18.310;2023-03-23T08:42:36;8.20;99.90
12386;DHT22;6257;57.634;18.310;2023-03-23T08:45:04;8.20;99.90
12386;DHT22;6257;57.634;18.310;2023-03-23T08:47:34;8.30;99.90
12386;DHT22;6257;57.634;18.310;2023-03-23T08:50:01;8.30;99.90
12386;DHT22;6257;57.634;18.310;2023-03-23T08:52:28;8.40;99.90
12386;DHT22;6257;57.634;18.310;2023-03-23T08:54:56;8.50;99.90
12386;DHT22;6257;57.634;18.310;2023-03-23T08:57:23;8.60;99.90
12386;DHT22;6257;57.634;18.310;2023-03-23T08:59:51;8.70;99.90
12386;DHT22;6257;57.634;18.310;2023-03-23T09:02:19;8.80;99.90
12386;DHT22;6257;57.634;18.310;2023-03-23T09:04:48;8.70;99.90
12386;DHT22;6257;57.634;18.310;2023-03-23T09:07:16;8.70;99.90
12386;DHT22;6257;57.634;18.310;2023-03-23T09:09:42;8.60;99.90
12386;DHT22;6257;57.634;18.310;2023-03-23T09:12:11;8.70;99.90
12386;DHT22;6257;57.634;18.310;2023-03-23T09:14:39;8.70;99.90
12386;DHT22;6257;57.634;18.310;2023-03-23T09:17:07;8.60;99.90
12386;DHT22;6257;57.634;18.310;2023-03-23T09:19:34;8.70;99.90
12386;DHT22;6257;57.634;18.310;2023-03-23T09:22:03;8.80;99.90
12386;DHT22;6257;57.634;18.310;2023-03-23T09:24:30;8.80;99.90
12386;DHT22;6257;57.634;18.310;2023-03-23T09:26:57;8.80;99.90
12386;DHT22;6257;57.634;18.310;2023-03-23T09:29:25;8.80;99.90
12386;DHT22;6257;57.634;18.310;2023-03-23T09:31:53;8.90;99.90
12386;DHT22;6257;57.634;18.310;2023-03-23T09:34:20;8.90;99.90
12386;DHT22;6257;57.634;18.310;2023-03-23T09:36:48;8.80;99.90
12386;DHT22;6257;57.634;18.310;2023-03-23T09:39:17;8.90;99.90
12386;DHT22;6257;57.634;18.310;2023-03-23T09:42:08;9.00;99.90
12386;DHT22;6257;57.634;18.310;2023-03-23T09:44:46;9.20;99.90
12386;DHT22;6257;57.634;18.310;2023-03-23T09:47:22;9.40;99.90
12386;DHT22;6257;57.634;18.310;2023-03-23T09:49:53;9.60;99.90
12386;DHT22;6257;57.634;18.310;2023-03-23T09:52:21;9.60;99.90
12386;DHT22;6257;57.634;18.310;2023-03-23T09:54:52;9.70;99.90
12386;DHT22;6257;57.634;18.310;2023-03-23T09:57:24;9.70;99.90
12386;DHT22;6257;57.634;18.310;2023-03-23T09:59:58;9.70;99.90
12386;DHT22;6257;57.634;18.310;2023-03-23T10:02:33;9.60;99.90
12386;DHT22;6257;57.634;18.310;2023-03-23T10:05:16;9.50;99.90
12386;DHT22;6257;57.634;18.310;2023-03-23T10:07:45;9.50;99.90
12386;DHT22;6257;57.634;18.310;2023-03-23T10:10:14;9.50;99.90
12386;DHT22;6257;57.634;18.310;2023-03-23T10:12:50;9.50;99.90
12386;DHT22;6257;57.634;18.310;2023-03-23T10:15:21;9.50;99.90
12386;DHT22;6257;57.634;18.310;2023-03-23T10:17:54;9.50;99.90
12386;DHT22;6257;57.634;18.310;2023-03-23T10:20:35;9.60;99.90
12386;DHT22;6257;57.634;18.310;2023-03-23T10:23:14;9.60;99.90
12386;DHT22;6257;57.634;18.310;2023-03-23T10:25:56;9.60;99.90
12386;DHT22;6257;57.634;18.310;2023-03-23T10:28:36;9.60;99.90
12386;DHT22;6257;57.634;18.310;2023-03-23T10:31:07;9.50;99.90
12386;DHT22;6257;57.634;18.310;2023-03-23T10:33:39;9.50;99.90
12386;DHT22;6257;57.634;18.310;2023-03-23T10:36:12;9.30;99.90
12386;DHT22;6257;57.634;18.310;2023-03-23T10:38:44;9.30;99.90
12386;DHT22;6257;57.634;18.310;2023-03-23T10:41:16;9.20;99.90
12386;DHT22;6257;57.634;18.310;2023-03-23T10:43:45;8.90;99.90
12386;DHT22;6257;57.634;18.310;2023-03-23T10:46:21;8.60;99.90
12386;DHT22;6257;57.634;18.310;2023-03-23T10:48:50;8.50;99.90
12386;DHT22;6257;57.634;18.310;2023-03-23T10:51:23;8.50;99.90
12386;DHT22;6257;57.634;18.310;2023-03-23T10:53:58;8.40;99.90
12386;DHT22;6257;57.634;18.310;2023-03-23T10:56:34;8.20;99.90
12386;DHT22;6257;57.634;18.310;2023-03-23T10:59:12;8.20;99.90
12386;DHT22;6257;57.634;18.310;2023-03-23T11:01:44;8.10;99.90
12386;DHT22;6257;57.634;18.310;2023-03-23T11:04:12;7.90;99.90
12386;DHT22;6257;57.634;18.310;2023-03-23T11:06:44;7.80;99.90
12386;DHT22;6257;57.634;18.310;2023-03-23T11:09:14;7.70;99.90
12386;DHT22;6257;57.634;18.310;2023-03-23T11:11:47;7.60;99.90
12386;DHT22;6257;57.634;18.310;2023-03-23T11:14:17;7.50;99.90
12386;DHT22;6257;57.634;18.310;2023-03-23T11:16:49;7.50;99.90
12386;DHT22;6257;57.634;18.310;2023-03-23T11:19:23;7.50;99.90
12386;DHT22;6257;57.634;18.310;2023-03-23T11:21:52;7.50;99.90
12386;DHT22;6257;57.634;18.310;2023-03-23T11:24:22;7.50;99.90
12386;DHT22;6257;57.634;18.310;2023-03-23T11:26:52;7.60;99.90
12386;DHT22;6257;57.634;18.310;2023-03-23T11:29:21;7.70;99.90
12386;DHT22;6257;57.634;18.310;2023-03-23T11:31:52;7.80;99.90
12386;DHT22;6257;57.634;18.310;2023-03-23T11:34:21;7.80;99.90
12386;DHT22;6257;57.634;18.310;2023-03-23T11:36:51;7.90;99.90
12386;DHT22;6257;57.634;18.310;2023-03-23T11:39:23;7.90;99.90
12386;DHT22;6257;57.634;18.310;2023-03-23T11:41:51;7.90;99.90
12386;DHT22;6257;57.634;18.310;2023-03-23T11:44:21;7.80;99.90
12386;DHT22;6257;57.634;18.310;2023-03-23T11:46:55;7.80;99.90
12386;DHT22;6257;57.634;18.310;2023-03-23T11:49:32;7.80;99.90
12386;DHT22;6257;57.634;18.310;2023-03-23T11:52:11;7.90;99.90
12386;DHT22;6257;57.634;18.310;2023-03-23T11:54:43;7.80;99.90
12386;DHT22;6257;57.634;18.310;2023-03-23T11:57:14;7.80;99.90
12386;DHT22;6257;57.634;18.310;2023-03-23T11:59:41;7.90;99.90
12386;DHT22;6257;57.634;18.310;2023-03-23T12:02:36;7.90;99.90
12386;DHT22;6257;57.634;18.310;2023-03-23T12:08:20;8.00;99.90
12386;DHT22;6257;57.634;18.310;2023-03-23T12:10:54;8.00;99.90
12386;DHT22;6257;57.634;18.310;2023-03-23T12:16:28;8.00;99.90
12386;DHT22;6257;57.634;18.310;2023-03-23T12:19:01;8.10;99.90
12386;DHT22;6257;57.634;18.310;2023-03-23T12:21:35;8.10;99.90
12386;DHT22;6257;57.634;18.310;2023-03-23T12:24:13;8.10;99.90
12386;DHT22;6257;57.634;18.310;2023-03-23T12:26:47;8.10;99.90
12386;DHT22;6257;57.634;18.310;2023-03-23T12:29:35;8.20;99.90
12386;DHT22;6257;57.634;18.310;2023-03-23T12:32:23;8.30;99.90
12386;DHT22;6257;57.634;18.310;2023-03-23T12:34:53;8.40;99.90
12386;DHT22;6257;57.634;18.310;2023-03-23T12:37:34;8.50;99.90
12386;DHT22;6257;57.634;18.310;2023-03-23T12:40:28;8.40;99.90
12386;DHT22;6257;57.634;18.310;2023-03-23T12:43:01;8.40;99.90
12386;DHT22;6257;57.634;18.310;2023-03-23T12:45:51;8.30;99.90
12386;DHT22;6257;57.634;18.310;2023-03-23T12:48:22;8.30;99.90
12386;DHT22;6257;57.634;18.310;2023-03-23T12:51:09;8.30;99.90
12386;DHT22;6257;57.634;18.310;2023-03-23T12:53:44;8.30;99.90
12386;DHT22;6257;57.634;18.310;2023-03-23T12:56:18;8.30;99.90
12386;DHT22;6257;57.634;18.310;2023-03-23T12:58:48;8.30;99.90
12386;DHT22;6257;57.634;18.310;2023-03-23T13:01:22;8.30;99.90
12386;DHT22;6257;57.634;18.310;2023-03-23T13:03:55;8.30;99.90
12386;DHT22;6257;57.634;18.310;2023-03-23T13:06:27;8.40;99.90
12386;DHT22;6257;57.634;18.310;2023-03-23T13:09:01;8.40;99.90
12386;DHT22;6257;57.634;18.310;2023-03-23T13:11:33;8.50;99.90
12386;DHT22;6257;57.634;18.310;2023-03-23T13:14:10;8.60;99.90
12386;DHT22;6257;57.634;18.310;2023-03-23T13:16:54;8.70;99.90
12386;DHT22;6257;57.634;18.310;2023-03-23T13:19:27;8.70;99.90
12386;DHT22;6257;57.634;18.310;2023-03-23T13:22:02;8.80;99.90
12386;DHT22;6257;57.634;18.310;2023-03-23T13:24:36;8.90;99.90
12386;DHT22;6257;57.634;18.310;2023-03-23T13:27:06;8.90;99.90
12386;DHT22;6257;57.634;18.310;2023-03-23T13:29:43;8.90;99.90
12386;DHT22;6257;57.634;18.310;2023-03-23T13:32:16;8.90;99.90
12386;DHT22;6257;57.634;18.310;2023-03-23T13:34:43;8.90;99.90
12386;DHT22;6257;57.634;18.310;2023-03-23T13:37:21;8.90;99.90
12386;DHT22;6257;57.634;18.310;2023-03-23T13:39:51;8.90;99.90
12386;DHT22;6257;57.634;18.310;2023-03-23T13:42:24;8.90;99.90
12386;DHT22;6257;57.634;18.310;2023-03-23T13:45:07;9.30;99.90
12386;DHT22;6257;57.634;18.310;2023-03-23T13:47:39;8.90;99.90
12386;DHT22;6257;57.634;18.310;2023-03-23T13:50:25;8.90;99.90
12386;DHT22;6257;57.634;18.310;2023-03-23T13:52:58;8.90;99.90
12386;DHT22;6257;57.634;18.310;2023-03-23T13:55:39;8.90;99.90
12386;DHT22;6257;57.634;18.310;2023-03-23T13:58:12;8.90;99.90
12386;DHT22;6257;57.634;18.310;2023-03-23T14:00:47;8.90;99.90
12386;DHT22;6257;57.634;18.310;2023-03-23T14:03:19;8.80;99.90
12386;DHT22;6257;57.634;18.310;2023-03-23T14:06:00;8.70;99.90
12386;DHT22;6257;57.634;18.310;2023-03-23T14:08:38;8.70;99.90
12386;DHT22;6257;57.634;18.310;2023-03-23T14:11:15;8.70;99.90
12386;DHT22;6257;57.634;18.310;2023-03-23T14:13:46;8.60;99.90
12386;DHT22;6257;57.634;18.310;2023-03-23T14:16:16;8.60;99.90
12386;DHT22;6257;57.634;18.310;2023-03-23T14:18:53;8.60;99.90
12386;DHT22;6257;57.634;18.310;2023-03-23T14:21:32;8.70;99.90
12386;DHT22;6257;57.634;18.310;2023-03-23T14:24:02;8.70;99.90
12386;DHT22;6257;57.634;18.310;2023-03-23T14:26:29;8.60;99.90
12386;DHT22;6257;57.634;18.310;2023-03-23T14:29:00;8.60;99.90
12386;DHT22;6257;57.634;18.310;2023-03-23T14:31:27;8.60;99.90
12386;DHT22;6257;57.634;18.310;2023-03-23T14:34:00;8.60;99.90
12386;DHT22;6257;57.634;18.310;2023-03-23T14:36:29;8.60;99.90
12386;DHT22;6257;57.634;18.310;2023-03-23T14:39:02;8.50;99.90
12386;DHT22;6257;57.634;18.310;2023-03-23T14:41:32;8.50;99.90
12386;DHT22;6257;57.634;18.310;2023-03-23T14:44:02;8.40;99.90
12386;DHT22;6257;57.634;18.310;2023-03-23T14:46:30;8.30;99.90
12386;DHT22;6257;57.634;18.310;2023-03-23T14:49:01;8.10;99.90
12386;DHT22;6257;57.634;18.310;2023-03-23T14:51:29;8.10;99.90
12386;DHT22;6257;57.634;18.310;2023-03-23T14:53:58;8.00;99.90
12386;DHT22;6257;57.634;18.310;2023-03-23T14:56:33;8.00;99.90
12386;DHT22;6257;57.634;18.310;2023-03-23T14:59:04;8.00;99.90
12386;DHT22;6257;57.634;18.310;2023-03-23T15:01:35;7.90;99.90
12386;DHT22;6257;57.634;18.310;2023-03-23T15:04:09;7.70;99.90
12386;DHT22;6257;57.634;18.310;2023-03-23T15:06:39;7.60;99.90
12386;DHT22;6257;57.634;18.310;2023-03-23T15:09:11;7.50;99.90
12386;DHT22;6257;57.634;18.310;2023-03-23T15:11:39;7.40;99.90
12386;DHT22;6257;57.634;18.310;2023-03-23T15:14:10;7.30;99.90
12386;DHT22;6257;57.634;18.310;2023-03-23T15:16:45;7.30;99.90
12386;DHT22;6257;57.634;18.310;2023-03-23T15:19:17;7.20;99.90
12386;DHT22;6257;57.634;18.310;2023-03-23T15:21:50;7.20;99.90
12386;DHT22;6257;57.634;18.310;2023-03-23T15:24:24;7.30;99.90
12386;DHT22;6257;57.634;18.310;2023-03-23T15:26:52;7.30;99.90
12386;DHT22;6257;57.634;18.310;2023-03-23T15:29:21;7.30;99.90
12386;DHT22;6257;57.634;18.310;2023-03-23T15:31:51;7.20;99.90
12386;DHT22;6257;57.634;18.310;2023-03-23T15:34:27;7.10;99.90
12386;DHT22;6257;57.634;18.310;2023-03-23T15:36:59;7.10;99.90
12386;DHT22;6257;57.634;18.310;2023-03-23T15:39:27;7.00;99.90
12386;DHT22;6257;57.634;18.310;2023-03-23T15:41:56;6.90;99.90
12386;DHT22;6257;57.634;18.310;2023-03-23T15:44:30;6.90;99.90
12386;DHT22;6257;57.634;18.310;2023-03-23T15:47:19;5.60;99.90
12386;DHT22;6257;57.634;18.310;2023-03-23T15:49:59;6.80;99.90
12386;DHT22;6257;57.634;18.310;2023-03-23T15:52:28;6.80;99.90
12386;DHT22;6257;57.634;18.310;2023-03-23T15:54:56;6.90;99.90
12386;DHT22;6257;57.634;18.310;2023-03-23T15:57:23;6.90;99.90
12386;DHT22;6257;57.634;18.310;2023-03-23T15:59:50;6.90;99.90
12386;DHT22;6257;57.634;18.310;2023-03-23T16:02:21;6.90;99.90
12386;DHT22;6257;57.634;18.310;2023-03-23T16:04:51;6.90;99.90
12386;DHT22;6257;57.634;18.310;2023-03-23T16:07:21;6.90;99.90
12386;DHT22;6257;57.634;18.310;2023-03-23T16:09:49;6.80;99.90
12386;DHT22;6257;57.634;18.310;2023-03-23T16:12:16;6.80;99.90
12386;DHT22;6257;57.634;18.310;2023-03-23T16:14:43;6.80;99.90
12386;DHT22;6257;57.634;18.310;2023-03-23T16:17:11;6.80;99.90